Time;durP1;ratioP1;P1;durP2;ratioP2;P2;SDS_P1;SDS_P2;PMS_P1;PMS_P2;Temp;Humidity;BMP_temperature;BMP_pressure;BME280_temperature;BME280_humidity;BME280_pressure;Samples;Min_cycle;Max_cycle;Signal;HPM_P1;HPM_P2
2022/07/25 00:02:25;;;;;;;6.82;3.55;;;23.10;99.90;;;;;;5071647;28;20080;-78
2022/07/25 00:04:51;;;;;;;4.22;3.10;;;23.00;99.90;;;;;;5071826;28;20044;-78
2022/07/25 00:07:16;;;;;;;4.47;3.20;;;22.70;99.90;;;;;;5071682;28;20041;-79
2022/07/25 00:09:42;;;;;;;4.05;3.47;;;22.80;99.90;;;;;;5070471;28;20413;-78
2022/07/25 00:12:08;;;;;;;3.70;3.30;;;22.90;99.90;;;;;;5071899;28;20133;-78
2022/07/25 00:14:34;;;;;;;3.60;3.00;;;22.50;99.90;;;;;;5071431;28;20072;-79
2022/07/25 00:17:00;;;;;;;6.40;3.60;;;22.30;99.90;;;;;;5071656;28;20040;-79
2022/07/25 00:19:25;;;;;;;6.28;3.33;;;22.60;99.90;;;;;;5071608;28;20037;-78
2022/07/25 00:21:51;;;;;;;4.43;3.53;;;22.80;99.90;;;;;;5071716;28;20083;-80
2022/07/25 00:24:17;;;;;;;7.75;3.40;;;22.40;99.90;;;;;;5071525;28;20131;-78
2022/07/25 00:26:42;;;;;;;5.13;3.58;;;22.60;99.90;;;;;;5071654;28;20067;-79
2022/07/25 00:29:08;;;;;;;4.68;3.10;;;22.40;99.90;;;;;;5070193;28;20109;-78
2022/07/25 00:31:34;;;;;;;3.72;3.13;;;22.50;99.90;;;;;;5053777;28;20093;-77
2022/07/25 00:34:00;;;;;;;3.70;3.17;;;22.50;99.90;;;;;;5071614;28;20044;-78
2022/07/25 00:36:26;;;;;;;3.75;3.42;;;22.60;99.90;;;;;;5070420;28;20059;-78
2022/07/25 00:38:51;;;;;;;4.35;3.30;;;22.80;99.90;;;;;;5071628;28;20049;-79
2022/07/25 00:41:17;;;;;;;3.65;3.25;;;22.40;99.90;;;;;;5071373;28;20075;-78
2022/07/25 00:43:44;;;;;;;4.13;3.72;;;22.50;99.90;;;;;;5072286;28;20052;-77
2022/07/25 00:46:14;;;;;;;5.85;3.80;;;22.30;99.90;;;;;;5075498;28;20054;-80
2022/07/25 00:48:40;;;;;;;4.18;3.78;;;22.10;99.90;;;;;;5075474;28;20516;-78
2022/07/25 00:51:06;;;;;;;4.88;3.60;;;22.00;99.90;;;;;;5075429;28;20044;-76
2022/07/25 00:53:32;;;;;;;4.10;3.67;;;22.10;99.90;;;;;;5075483;28;20041;-77
2022/07/25 00:55:58;;;;;;;5.97;4.20;;;22.30;99.90;;;;;;5075557;28;20154;-77
2022/07/25 00:58:23;;;;;;;4.35;3.92;;;22.10;99.90;;;;;;5074035;28;20044;-77
2022/07/25 01:00:49;;;;;;;4.55;3.92;;;21.80;99.90;;;;;;5075322;28;20390;-76
2022/07/25 01:03:16;;;;;;;6.00;3.95;;;21.80;99.90;;;;;;5074024;28;20192;-78
2022/07/25 01:05:42;;;;;;;5.35;3.92;;;21.70;99.90;;;;;;5075000;28;20056;-78
2022/07/25 01:08:08;;;;;;;4.72;4.22;;;21.70;99.90;;;;;;5075392;28;20051;-76
2022/07/25 01:10:34;;;;;;;6.65;4.18;;;21.70;99.90;;;;;;5075175;28;20045;-77
2022/07/25 01:13:00;;;;;;;6.13;4.22;;;21.80;99.90;;;;;;5075223;28;20066;-78
2022/07/25 01:15:26;;;;;;;5.10;4.30;;;21.40;99.90;;;;;;5075081;28;20051;-77
2022/07/25 01:17:52;;;;;;;4.85;4.22;;;21.50;99.90;;;;;;5075030;28;20137;-77
2022/07/25 01:20:20;;;;;;;6.40;4.18;;;21.90;99.90;;;;;;5074706;28;20048;-77
2022/07/25 01:22:45;;;;;;;6.38;4.25;;;21.50;99.90;;;;;;5075091;28;20374;-77
2022/07/25 01:25:13;;;;;;;4.82;4.30;;;21.30;99.90;;;;;;5074619;28;20121;-76
2022/07/25 01:27:40;;;;;;;5.25;4.75;;;21.50;99.90;;;;;;5074581;28;20051;-76
2022/07/25 01:30:07;;;;;;;9.93;5.10;;;21.40;99.90;;;;;;5074885;28;20440;-78
2022/07/25 01:32:34;;;;;;;5.93;4.50;;;21.90;99.90;;;;;;5074554;28;20054;-77
2022/07/25 01:35:00;;;;;;;6.40;4.57;;;21.70;99.90;;;;;;5073552;28;20510;-77
2022/07/25 01:37:25;;;;;;;10.77;5.22;;;21.60;99.90;;;;;;5074667;28;20040;-77
2022/07/25 01:39:51;;;;;;;4.85;4.40;;;21.60;99.90;;;;;;5074262;28;20090;-77
2022/07/25 01:42:17;;;;;;;10.52;4.57;;;21.30;99.90;;;;;;5071380;28;20048;-78
2022/07/25 01:44:42;;;;;;;8.00;4.90;;;21.40;99.90;;;;;;5056874;28;20065;-79
2022/07/25 01:47:08;;;;;;;7.93;5.10;;;21.30;99.90;;;;;;5073523;28;20079;-77
2022/07/25 01:49:34;;;;;;;8.45;5.10;;;21.40;99.90;;;;;;5074346;28;20044;-79
2022/07/25 01:52:00;;;;;;;6.82;5.28;;;21.30;99.90;;;;;;5073459;28;20048;-79
2022/07/25 01:54:25;;;;;;;5.50;4.55;;;21.20;99.90;;;;;;5074094;28;20043;-77
2022/07/25 01:56:51;;;;;;;5.65;4.78;;;21.20;99.90;;;;;;5074400;28;20052;-78
2022/07/25 01:59:17;;;;;;;7.55;4.32;;;21.00;99.90;;;;;;5073197;28;20490;-78
2022/07/25 02:01:43;;;;;;;6.97;4.43;;;21.10;99.90;;;;;;5074255;28;20060;-78
2022/07/25 02:04:09;;;;;;;5.15;4.65;;;21.20;99.90;;;;;;5072643;28;20040;-78
2022/07/25 02:06:34;;;;;;;4.72;4.25;;;21.10;99.90;;;;;;5073266;28;20093;-78
2022/07/25 02:09:02;;;;;;;4.68;4.10;;;21.20;99.90;;;;;;5073928;28;20131;-79
2022/07/25 02:11:27;;;;;;;4.45;4.05;;;20.90;99.90;;;;;;5074024;28;20048;-79
2022/07/25 02:13:53;;;;;;;6.43;4.30;;;21.30;99.90;;;;;;5056069;28;20127;-77
2022/07/25 02:16:19;;;;;;;4.47;4.07;;;20.90;99.90;;;;;;5073886;28;20049;-79
2022/07/25 02:18:44;;;;;;;5.93;4.35;;;21.10;99.90;;;;;;5072735;28;20056;-77
2022/07/25 02:21:10;;;;;;;5.10;4.60;;;20.90;99.90;;;;;;5073735;28;20106;-77
2022/07/25 02:23:36;;;;;;;5.40;4.72;;;21.20;99.90;;;;;;5073670;28;20063;-80
2022/07/25 02:26:03;;;;;;;4.65;4.25;;;20.60;99.90;;;;;;5072549;28;20044;-79
2022/07/25 02:28:29;;;;;;;5.78;5.00;;;20.80;99.90;;;;;;5073667;28;20127;-78
2022/07/25 02:30:55;;;;;;;5.40;4.80;;;21.20;99.90;;;;;;5072335;28;20135;-77
2022/07/25 02:33:20;;;;;;;5.13;4.63;;;21.10;99.90;;;;;;5073430;28;20091;-77
2022/07/25 02:35:46;;;;;;;6.82;4.55;;;20.90;99.90;;;;;;5073690;28;20044;-79
2022/07/25 02:38:18;;;;;;;6.22;4.78;;;20.90;99.90;;;;;;5072120;28;20044;-79
2022/07/25 02:40:48;;;;;;;5.47;4.32;;;21.10;99.90;;;;;;5073585;28;20464;-77
2022/07/25 02:43:14;;;;;;;5.20;4.63;;;20.70;99.90;;;;;;5073241;28;20045;-79
2022/07/25 02:45:39;;;;;;;6.22;4.70;;;21.10;99.90;;;;;;5072136;28;20086;-77
2022/07/25 02:48:05;;;;;;;7.00;5.20;;;21.00;99.90;;;;;;5073541;28;20056;-77
2022/07/25 02:50:31;;;;;;;5.47;4.97;;;20.90;99.90;;;;;;5073349;28;20052;-78
2022/07/25 02:52:57;;;;;;;6.82;5.05;;;20.90;99.90;;;;;;5073050;28;20048;-77
2022/07/25 02:55:23;;;;;;;7.30;5.75;;;20.90;99.90;;;;;;5073111;28;20135;-77
2022/07/25 02:57:48;;;;;;;8.13;5.43;;;21.00;99.90;;;;;;5071805;28;20358;-78
2022/07/25 03:00:15;;;;;;;5.40;4.88;;;21.20;99.90;;;;;;5071957;28;20052;-77
2022/07/25 03:02:40;;;;;;;6.07;5.47;;;21.00;99.90;;;;;;5073228;28;20588;-78
2022/07/25 03:05:08;;;;;;;7.35;5.78;;;21.20;99.90;;;;;;5071384;28;20123;-78
2022/07/25 03:07:34;;;;;;;7.43;6.10;;;20.80;99.90;;;;;;5072467;28;20135;-78
2022/07/25 03:10:00;;;;;;;7.75;6.13;;;21.10;99.90;;;;;;5072918;28;20188;-77
2022/07/25 03:12:26;;;;;;;6.93;5.68;;;20.80;99.90;;;;;;5071753;28;20041;-78
2022/07/25 03:14:51;;;;;;;7.80;5.63;;;20.80;99.90;;;;;;5072675;28;20036;-78
2022/07/25 03:17:17;;;;;;;7.43;5.50;;;21.10;99.90;;;;;;5071703;28;20047;-77
2022/07/25 03:19:43;;;;;;;5.85;5.35;;;21.00;99.90;;;;;;5072851;28;20051;-78
2022/07/25 03:22:09;;;;;;;6.38;5.68;;;20.90;99.90;;;;;;5072424;28;20055;-76
2022/07/25 03:24:34;;;;;;;7.47;5.70;;;20.90;99.90;;;;;;5071433;28;20059;-78
2022/07/25 03:27:00;;;;;;;7.57;5.65;;;20.90;99.90;;;;;;5072501;28;20048;-77
2022/07/25 03:29:26;;;;;;;7.72;6.10;;;20.80;99.90;;;;;;5072429;28;20143;-78
2022/07/25 03:31:51;;;;;;;7.82;6.10;;;20.80;99.90;;;;;;5071526;28;20049;-79
2022/07/25 03:34:17;;;;;;;8.85;6.13;;;20.80;99.90;;;;;;5072830;28;20049;-79
2022/07/25 03:36:43;;;;;;;8.45;6.10;;;20.80;99.90;;;;;;5072367;28;20087;-78
2022/07/25 03:39:08;;;;;;;7.47;6.20;;;21.10;99.90;;;;;;5072454;28;20415;-79
2022/07/25 03:41:34;;;;;;;13.77;6.68;;;20.80;99.90;;;;;;5071077;28;20063;-79
2022/07/25 03:44:00;;;;;;;8.38;6.80;;;20.90;99.90;;;;;;5070905;28;20067;-78
2022/07/25 03:46:26;;;;;;;8.52;6.22;;;21.00;99.90;;;;;;5054641;28;20101;-77
2022/07/25 03:48:51;;;;;;;8.73;6.57;;;21.10;99.90;;;;;;5072155;28;20044;-78
2022/07/25 03:51:17;;;;;;;7.25;6.30;;;20.80;99.90;;;;;;5071928;28;20048;-80
2022/07/25 03:54:01;;;;;;;8.02;6.68;;;20.90;99.90;;;;;;5072324;28;20037;-79
2022/07/25 03:56:30;;;;;;;11.85;6.93;;;20.80;99.90;;;;;;5072024;28;20510;-77
2022/07/25 03:58:56;;;;;;;7.95;6.57;;;20.90;99.90;;;;;;5071960;28;20071;-77
2022/07/25 04:01:22;;;;;;;8.00;7.03;;;20.60;99.90;;;;;;5070958;28;20477;-79
2022/07/25 04:03:47;;;;;;;8.85;6.47;;;20.70;99.90;;;;;;5071922;28;20045;-79
2022/07/25 04:06:13;;;;;;;12.57;6.70;;;20.90;99.90;;;;;;5070380;28;20048;-78
2022/07/25 04:08:39;;;;;;;7.85;6.72;;;20.90;99.90;;;;;;5071872;28;20045;-78
2022/07/25 04:11:05;;;;;;;8.63;6.90;;;20.70;99.90;;;;;;5070541;28;20052;-76
2022/07/25 04:13:30;;;;;;;9.65;6.47;;;20.90;99.90;;;;;;5072033;28;20051;-79
2022/07/25 04:15:56;;;;;;;9.68;6.38;;;20.80;99.90;;;;;;5070760;28;20402;-79
2022/07/25 04:18:22;;;;;;;10.05;7.00;;;20.90;99.90;;;;;;5069668;28;20048;-79
2022/07/25 04:20:47;;;;;;;10.60;7.22;;;21.00;99.90;;;;;;5071529;28;20044;-78
2022/07/25 04:23:13;;;;;;;8.30;6.55;;;20.90;99.90;;;;;;5071467;28;20142;-78
2022/07/25 04:25:39;;;;;;;9.50;6.85;;;20.60;99.90;;;;;;5071573;28;20052;-79
2022/07/25 04:28:04;;;;;;;7.55;6.72;;;20.80;99.90;;;;;;5071481;28;20048;-78
2022/07/25 04:30:30;;;;;;;8.75;7.07;;;20.80;99.90;;;;;;5071696;28;20048;-78
2022/07/25 04:32:56;;;;;;;8.27;6.88;;;20.90;99.90;;;;;;5071799;28;20044;-77
2022/07/25 04:35:21;;;;;;;8.25;7.20;;;21.00;99.90;;;;;;5071258;28;20049;-78
2022/07/25 04:37:48;;;;;;;8.13;7.28;;;21.00;99.90;;;;;;5070593;28;20049;-78
2022/07/25 04:40:14;;;;;;;9.48;7.13;;;20.80;99.90;;;;;;5071338;28;20048;-79
2022/07/25 04:42:39;;;;;;;9.55;7.20;;;21.10;99.90;;;;;;5071506;28;20049;-77
2022/07/25 04:45:05;;;;;;;8.93;7.40;;;21.20;99.90;;;;;;5071410;28;20087;-79
2022/07/25 04:47:31;;;;;;;8.95;7.63;;;21.10;99.90;;;;;;5071528;28;20087;-77
2022/07/25 04:49:57;;;;;;;8.40;7.50;;;21.20;99.90;;;;;;5070073;28;20412;-79
2022/07/25 04:52:22;;;;;;;8.45;7.30;;;21.10;99.90;;;;;;5070109;28;20398;-79
2022/07/25 04:54:48;;;;;;;11.25;7.75;;;21.20;99.90;;;;;;5071465;28;20040;-78
2022/07/25 04:57:14;;;;;;;8.05;7.25;;;20.90;99.90;;;;;;5071161;28;20044;-77
2022/07/25 04:59:39;;;;;;;7.85;7.05;;;20.90;99.90;;;;;;5071487;28;20044;-78
2022/07/25 05:02:05;;;;;;;12.38;7.82;;;21.10;99.90;;;;;;5071335;28;20053;-78
2022/07/25 05:04:31;;;;;;;11.40;8.13;;;20.90;99.90;;;;;;5071050;28;20127;-77
2022/07/25 05:06:56;;;;;;;7.85;7.05;;;21.30;99.90;;;;;;5071235;28;20417;-78
2022/07/25 05:09:22;;;;;;;8.80;7.68;;;21.20;99.90;;;;;;5071206;28;20450;-78
2022/07/25 05:11:48;;;;;;;11.20;6.82;;;21.00;99.90;;;;;;5071267;28;20049;-78
2022/07/25 05:14:13;;;;;;;10.43;7.80;;;21.00;99.90;;;;;;5069857;28;20123;-79
2022/07/25 05:16:39;;;;;;;9.88;7.63;;;21.00;99.90;;;;;;5070047;28;20044;-79
2022/07/25 05:19:05;;;;;;;11.52;8.02;;;21.10;99.90;;;;;;5070901;28;20053;-78
2022/07/25 05:21:31;;;;;;;9.75;8.70;;;21.50;99.90;;;;;;5070187;28;20049;-78
2022/07/25 05:23:57;;;;;;;11.98;7.95;;;21.30;99.90;;;;;;5071068;28;20094;-78
2022/07/25 05:26:22;;;;;;;11.95;8.15;;;21.20;99.90;;;;;;5070228;28;20057;-79
2022/07/25 05:28:48;;;;;;;12.05;8.35;;;21.30;99.90;;;;;;5071882;28;20067;-78
2022/07/25 05:31:14;;;;;;;9.50;8.50;;;21.00;99.90;;;;;;5073873;28;20410;-78
2022/07/25 05:33:39;;;;;;;9.68;8.68;;;21.40;99.90;;;;;;5074808;28;20063;-78
2022/07/25 05:36:07;;;;;;;19.70;8.88;;;21.30;99.90;;;;;;5073662;28;20079;-79
2022/07/25 05:38:33;;;;;;;10.07;8.75;;;21.30;99.90;;;;;;5074752;28;20055;-79
2022/07/25 05:40:59;;;;;;;12.05;8.70;;;21.20;99.90;;;;;;5073131;28;20049;-79
2022/07/25 05:43:25;;;;;;;10.30;8.20;;;21.30;99.90;;;;;;5073671;28;20074;-78
2022/07/25 05:45:51;;;;;;;12.35;9.27;;;21.40;99.90;;;;;;5074436;28;20059;-79
2022/07/25 05:48:17;;;;;;;11.13;8.98;;;21.30;99.90;;;;;;5074222;28;20398;-79
2022/07/25 05:50:44;;;;;;;10.40;9.00;;;21.10;99.90;;;;;;5073500;28;20048;-79
2022/07/25 05:53:11;;;;;;;10.57;9.07;;;21.10;99.90;;;;;;5073888;28;20045;-78
2022/07/25 05:55:36;;;;;;;12.10;9.75;;;21.20;99.90;;;;;;5074297;28;20044;-78
2022/07/25 05:58:02;;;;;;;12.35;10.15;;;21.20;99.90;;;;;;5074389;28;20063;-79
2022/07/25 06:00:28;;;;;;;11.80;10.07;;;21.20;99.90;;;;;;5074321;28;20048;-78
2022/07/25 06:02:59;;;;;;;14.43;10.35;;;21.40;99.90;;;;;;5073929;28;20046;-78
2022/07/25 06:05:24;;;;;;;13.07;10.60;;;21.40;99.90;;;;;;5074173;28;20063;-78
2022/07/25 06:07:50;;;;;;;14.15;10.45;;;21.30;99.90;;;;;;5073993;28;20059;-77
2022/07/25 06:10:16;;;;;;;13.98;11.30;;;21.70;99.90;;;;;;5073868;28;20055;-77
2022/07/25 06:12:41;;;;;;;12.95;10.70;;;21.80;99.90;;;;;;5074188;28;20521;-78
2022/07/25 06:15:08;;;;;;;12.35;11.15;;;21.70;99.90;;;;;;5073755;28;20040;-79
2022/07/25 06:17:34;;;;;;;15.15;10.70;;;21.50;99.90;;;;;;5073720;28;20131;-78
2022/07/25 06:19:59;;;;;;;12.38;10.18;;;22.00;99.90;;;;;;5072192;28;20131;-78
2022/07/25 06:22:25;;;;;;;13.98;10.40;;;21.70;99.90;;;;;;5072652;28;20052;-78
2022/07/25 06:24:51;;;;;;;11.52;10.32;;;22.10;99.90;;;;;;5073542;28;20048;-78
2022/07/25 06:27:16;;;;;;;11.85;10.07;;;22.50;99.90;;;;;;5073813;28;20132;-77
2022/07/25 06:29:42;;;;;;;13.02;10.52;;;22.40;99.90;;;;;;5072470;28;20044;-76
2022/07/25 06:32:08;;;;;;;11.85;10.00;;;22.40;99.90;;;;;;5072938;28;20040;-78
2022/07/25 06:34:33;;;;;;;10.77;8.93;;;22.60;99.90;;;;;;5073559;28;20557;-76
2022/07/25 06:36:59;;;;;;;12.70;10.57;;;22.50;99.90;;;;;;5073374;28;20079;-77
2022/07/25 06:39:26;;;;;;;13.25;10.25;;;22.30;99.90;;;;;;5073324;28;20402;-77
2022/07/25 06:41:52;;;;;;;13.30;9.75;;;22.50;99.90;;;;;;5071032;28;20067;-78
2022/07/25 06:44:18;;;;;;;12.65;10.07;;;22.60;99.90;;;;;;5073437;28;20048;-77
2022/07/25 06:46:43;;;;;;;11.45;9.77;;;22.50;99.90;;;;;;5072947;28;20049;-77
2022/07/25 06:49:09;;;;;;;12.75;10.05;;;22.70;99.90;;;;;;5071973;28;20101;-77
2022/07/25 06:51:35;;;;;;;12.90;9.30;;;22.90;99.90;;;;;;5071987;28;20049;-77
2022/07/25 06:54:00;;;;;;;12.10;9.38;;;22.70;99.90;;;;;;5055352;28;20059;-78
2022/07/25 06:56:30;;;;;;;11.10;8.63;;;23.00;99.90;;;;;;5073309;28;20051;-77
2022/07/25 07:05:09;;;;;;;11.82;8.73;;;22.40;99.90;;;;;;5121768;27;1277379;-69
2022/07/25 07:07:34;;;;;;;11.18;8.80;;;23.10;99.90;;;;;;5156531;27;20042;-76
2022/07/25 07:10:01;;;;;;;9.43;8.32;;;23.30;99.90;;;;;;5146865;27;20047;-75
2022/07/25 07:12:26;;;;;;;9.05;7.97;;;23.30;99.90;;;;;;5154278;27;20053;-74
2022/07/25 07:14:52;;;;;;;9.05;7.72;;;23.30;99.90;;;;;;5147342;27;20042;-74
2022/07/25 07:17:17;;;;;;;9.95;7.88;;;23.90;99.90;;;;;;5153937;27;20049;-70
2022/07/25 07:19:44;;;;;;;10.55;7.50;;;23.40;99.90;;;;;;5155283;27;20074;-70
2022/07/25 07:22:10;;;;;;;8.70;7.43;;;23.70;99.90;;;;;;5153234;27;20522;-74
2022/07/25 07:24:36;;;;;;;9.95;7.15;;;23.50;99.90;;;;;;5152523;27;20142;-70
2022/07/25 07:27:02;;;;;;;7.55;6.63;;;23.90;99.90;;;;;;5157325;27;20046;-70
2022/07/25 07:29:28;;;;;;;13.85;6.63;;;23.90;99.90;;;;;;5154540;27;20562;-70
2022/07/25 07:31:54;;;;;;;8.98;5.90;;;23.70;99.90;;;;;;5129746;27;20042;-69
2022/07/25 07:34:20;;;;;;;9.00;5.80;;;24.10;99.90;;;;;;5130247;27;20039;-71
2022/07/25 07:36:46;;;;;;;6.35;5.40;;;24.30;99.90;;;;;;5156856;27;20078;-72
2022/07/25 07:39:11;;;;;;;7.97;5.28;;;23.80;99.90;;;;;;5153385;27;20066;-68
2022/07/25 07:41:37;;;;;;;7.60;5.10;;;23.90;99.90;;;;;;5155222;27;20506;-70
2022/07/25 07:44:04;;;;;;;8.63;4.93;;;23.90;99.90;;;;;;5153727;27;20050;-72
2022/07/25 07:46:30;;;;;;;11.73;4.47;;;24.40;99.90;;;;;;5156275;27;20035;-72
2022/07/25 07:48:55;;;;;;;5.97;4.20;;;23.90;99.90;;;;;;5151656;27;20110;-71
2022/07/25 07:51:21;;;;;;;6.00;4.38;;;24.10;99.90;;;;;;5156511;27;20039;-71
2022/07/25 07:56:31;;;;;;;3.83;3.38;;;23.80;99.90;;;;;;5154144;27;20103;-71
2022/07/25 07:58:57;;;;;;;5.13;3.60;;;23.50;99.90;;;;;;5151279;27;20721;-70
2022/07/25 08:01:23;;;;;;;6.70;3.65;;;23.20;99.90;;;;;;5164239;27;20443;-73
2022/07/25 08:03:49;;;;;;;6.90;3.58;;;23.20;99.90;;;;;;5169645;27;20141;-72
2022/07/25 08:06:15;;;;;;;5.28;3.60;;;23.10;99.90;;;;;;5170106;27;20249;-71
2022/07/25 08:08:41;;;;;;;7.50;3.60;;;23.30;99.90;;;;;;5153917;27;20039;-70
2022/07/25 08:11:07;;;;;;;6.03;3.72;;;23.00;99.90;;;;;;5148035;27;20038;-69
2022/07/25 08:13:36;;;;;;;6.00;4.10;;;22.80;99.90;;;;;;5145777;27;20055;-72
2022/07/25 08:16:03;;;;;;;7.57;4.05;;;23.00;99.90;;;;;;5137511;27;20047;-71
2022/07/25 08:18:31;;;;;;;9.75;4.40;;;23.00;99.90;;;;;;5135374;27;20100;-71
2022/07/25 08:20:57;;;;;;;6.65;4.25;;;23.00;99.90;;;;;;5135276;27;20039;-70
2022/07/25 08:23:24;;;;;;;8.00;3.70;;;22.70;99.90;;;;;;5135447;27;20047;-70
2022/07/25 08:25:50;;;;;;;4.00;3.00;;;22.60;99.90;;;;;;5135038;27;20615;-70
2022/07/25 08:28:16;;;;;;;5.65;2.83;;;22.20;99.90;;;;;;5135324;27;20092;-70
2022/07/25 08:30:42;;;;;;;4.88;2.30;;;22.50;99.90;;;;;;5135035;27;20089;-71
2022/07/25 08:33:12;;;;;;;4.05;2.67;;;22.30;99.90;;;;;;5135173;27;20138;-73
2022/07/25 08:35:38;;;;;;;7.32;2.90;;;22.70;99.90;;;;;;5135322;27;20122;-71
2022/07/25 08:38:05;;;;;;;4.15;2.75;;;22.40;99.90;;;;;;5134922;27;20043;-71
2022/07/25 08:40:32;;;;;;;4.70;2.80;;;22.10;99.90;;;;;;5134473;27;20043;-71
2022/07/25 08:42:59;;;;;;;5.18;3.08;;;22.30;99.90;;;;;;5134866;27;20099;-72
2022/07/25 08:45:27;;;;;;;7.70;3.28;;;22.50;99.90;;;;;;5134891;27;20061;-70
2022/07/25 08:47:53;;;;;;;7.93;3.33;;;22.40;99.90;;;;;;5134845;27;20063;-71
2022/07/25 08:50:25;;;;;;;4.40;2.90;;;22.40;99.90;;;;;;5135128;27;20039;-70
2022/07/25 08:52:51;;;;;;;2.58;2.38;;;22.50;99.90;;;;;;5134558;27;20079;-70
2022/07/25 08:55:19;;;;;;;5.03;2.17;;;22.60;99.90;;;;;;5134456;27;20500;-70
2022/07/25 08:57:51;;;;;;;3.75;2.50;;;22.50;99.90;;;;;;5134801;27;20044;-70
2022/07/25 09:00:23;;;;;;;5.00;2.75;;;22.50;99.90;;;;;;5134623;27;20550;-70
2022/07/25 09:03:00;;;;;;;5.43;2.70;;;22.80;99.90;;;;;;5134641;27;20046;-71
2022/07/25 09:05:29;;;;;;;6.78;2.60;;;23.00;99.90;;;;;;5134853;27;20130;-70
2022/07/25 09:07:56;;;;;;;6.40;3.17;;;23.30;99.90;;;;;;5134657;27;20070;-70
2022/07/25 09:10:27;;;;;;;3.88;2.40;;;23.10;99.90;;;;;;5134035;27;20075;-70
2022/07/25 09:13:04;;;;;;;7.10;2.80;;;23.10;99.90;;;;;;5134530;27;20043;-70
2022/07/25 09:15:31;;;;;;;5.45;2.78;;;23.20;99.90;;;;;;5134415;27;20055;-70
2022/07/25 09:17:58;;;;;;;3.78;2.60;;;23.30;99.90;;;;;;5134242;27;20084;-70
2022/07/25 09:20:39;;;;;;;7.72;2.65;;;23.20;99.90;;;;;;5134349;27;20142;-71
2022/07/25 09:23:06;;;;;;;5.95;2.70;;;23.10;99.90;;;;;;5134076;27;20065;-72
2022/07/25 09:25:32;;;;;;;8.05;2.60;;;23.00;99.90;;;;;;5133832;27;20050;-71
2022/07/25 09:28:18;;;;;;;4.25;2.40;;;23.10;99.90;;;;;;5133295;27;20406;-69
2022/07/25 09:30:58;;;;;;;4.25;2.97;;;23.20;99.90;;;;;;5133987;27;20053;-70
2022/07/25 09:33:25;;;;;;;3.85;2.20;;;23.10;99.90;;;;;;5133682;27;20043;-71
2022/07/25 09:35:52;;;;;;;4.05;2.38;;;23.00;99.90;;;;;;5134058;27;20083;-71
2022/07/25 09:38:19;;;;;;;9.85;2.40;;;22.90;99.90;;;;;;5133816;27;20405;-71
2022/07/25 09:41:00;;;;;;;3.35;2.17;;;22.90;99.90;;;;;;5133480;27;20076;-71
2022/07/25 09:43:42;;;;;;;5.40;2.10;;;22.40;99.90;;;;;;5133581;27;20043;-72
2022/07/25 09:46:10;;;;;;;5.55;2.42;;;22.40;99.90;;;;;;5133919;27;20051;-74
2022/07/25 09:48:38;;;;;;;6.05;2.67;;;22.10;99.90;;;;;;5133767;27;20402;-74
2022/07/25 09:51:05;;;;;;;4.63;2.40;;;22.40;99.90;;;;;;5133547;27;20556;-73
2022/07/25 09:53:31;;;;;;;4.38;2.92;;;21.80;99.90;;;;;;5133125;27;20047;-73
2022/07/25 09:55:57;;;;;;;6.97;2.55;;;22.00;99.90;;;;;;5098397;27;20058;-73
2022/07/25 09:58:27;;;;;;;5.43;2.95;;;22.00;99.90;;;;;;5133597;27;20054;-73
2022/07/25 10:00:59;;;;;;;11.95;3.00;;;21.60;99.90;;;;;;5133276;27;20058;-72
2022/07/25 10:03:51;;;;;;;7.45;2.80;;;21.80;99.90;;;;;;5133368;27;20063;-73
2022/07/25 10:06:46;;;;;;;4.95;3.40;;;21.80;99.90;;;;;;5133373;27;20047;-72
2022/07/25 10:09:12;;;;;;;5.80;2.97;;;22.50;99.90;;;;;;5132874;27;20096;-72
2022/07/25 10:11:38;;;;;;;6.30;2.47;;;21.90;99.90;;;;;;5133444;27;20096;-72
2022/07/25 10:14:11;;;;;;;7.18;2.80;;;22.00;99.90;;;;;;5132362;27;20491;-71
2022/07/25 10:16:47;;;;;;;9.50;2.50;;;22.00;99.90;;;;;;5109340;27;20078;-72
2022/07/25 10:19:13;;;;;;;9.23;2.95;;;22.30;99.90;;;;;;5130301;27;20051;-73
2022/07/25 10:21:39;;;;;;;7.57;2.78;;;22.40;99.90;;;;;;5113036;27;20684;-78
2022/07/25 10:24:09;;;;;;;10.02;3.25;;;23.40;99.90;;;;;;5132119;27;20078;-68
2022/07/25 10:26:49;;;;;;;10.48;2.90;;;23.30;99.90;;;;;;5132655;27;20047;-76
2022/07/25 10:29:15;;;;;;;6.53;2.80;;;23.80;99.90;;;;;;5132857;27;20051;-73
2022/07/25 10:31:44;;;;;;;9.82;2.92;;;24.10;99.90;;;;;;5132318;27;20126;-69
2022/07/25 10:34:12;;;;;;;4.28;2.42;;;23.70;99.90;;;;;;5133152;27;20130;-72
2022/07/25 10:36:45;;;;;;;11.57;2.97;;;23.70;99.90;;;;;;5131988;27;20100;-76
2022/07/25 10:39:14;;;;;;;10.82;3.60;;;23.80;99.90;;;;;;5132280;27;20051;-68
2022/07/25 10:41:41;;;;;;;7.30;2.47;;;23.90;99.90;;;;;;5132850;27;20061;-74
2022/07/25 10:44:12;;;;;;;6.65;2.38;;;23.90;99.90;;;;;;5131888;27;20035;-72
2022/07/25 10:46:38;;;;;;;7.57;2.45;;;23.80;99.90;;;;;;5132892;27;20054;-79
2022/07/25 10:49:06;;;;;;;6.53;2.85;;;23.80;99.90;;;;;;5132452;27;20039;-79
2022/07/25 10:51:36;;;;;;;10.52;2.63;;;23.50;99.90;;;;;;5129023;27;20062;-79
2022/07/25 10:54:15;;;;;;;7.30;2.70;;;23.30;99.90;;;;;;5137056;27;20053;-80
2022/07/25 10:56:58;;;;;;;10.50;2.58;;;23.20;99.90;;;;;;5139502;27;20046;-77
2022/07/25 10:59:38;;;;;;;10.32;2.90;;;23.30;99.90;;;;;;5131184;27;20043;-75
2022/07/25 11:02:07;;;;;;;10.30;2.72;;;23.10;99.90;;;;;;5139168;27;20043;-78
2022/07/25 11:04:33;;;;;;;7.70;2.70;;;23.50;99.90;;;;;;5135805;27;20059;-76
2022/07/25 11:07:18;;;;;;;7.00;2.47;;;23.20;99.90;;;;;;5137647;27;20055;-78
2022/07/25 11:09:58;;;;;;;8.73;2.75;;;22.60;99.90;;;;;;5134745;27;20047;-79
2022/07/25 11:12:24;;;;;;;14.13;3.22;;;22.40;99.90;;;;;;5112465;28;20055;-74
2022/07/25 11:14:55;;;;;;;12.18;3.05;;;22.30;99.90;;;;;;5132358;28;20055;-79
2022/07/25 11:17:22;;;;;;;12.88;3.22;;;22.20;99.90;;;;;;5132704;28;20058;-73
2022/07/25 11:19:59;;;;;;;9.30;3.58;;;22.40;99.90;;;;;;5113964;28;20563;-79
2022/07/25 11:22:26;;;;;;;10.38;2.60;;;22.20;99.90;;;;;;5132663;28;20121;-81
2022/07/25 11:24:52;;;;;;;8.73;2.58;;;22.70;99.90;;;;;;5132358;28;20054;-76
2022/07/25 11:27:22;;;;;;;12.73;2.72;;;22.70;99.90;;;;;;5114247;28;20047;-76
2022/07/25 11:29:48;;;;;;;8.25;2.63;;;22.50;99.90;;;;;;5132846;28;20046;-80
2022/07/25 11:32:14;;;;;;;10.48;2.75;;;22.80;99.90;;;;;;5132632;28;20043;-80
2022/07/25 11:34:51;;;;;;;12.73;4.00;;;22.30;99.90;;;;;;5097083;28;20566;-78
2022/07/25 11:37:17;;;;;;;8.15;2.58;;;22.40;99.90;;;;;;5114081;28;20039;-77
2022/07/25 11:39:45;;;;;;;7.45;2.22;;;22.70;99.90;;;;;;5132266;28;20047;-81
2022/07/25 11:42:15;;;;;;;8.55;2.75;;;22.50;99.90;;;;;;5132273;28;20051;-78
2022/07/25 11:44:42;;;;;;;7.43;2.30;;;22.50;99.90;;;;;;5132299;28;20039;-75
2022/07/25 11:47:21;;;;;;;9.30;2.80;;;22.50;99.90;;;;;;5132382;28;20136;-77
2022/07/25 11:49:48;;;;;;;10.02;2.78;;;22.70;99.90;;;;;;5132229;27;20402;-76
2022/07/25 11:52:29;;;;;;;11.48;2.53;;;22.80;99.90;;;;;;5117863;27;20355;-77
2022/07/25 11:54:58;;;;;;;6.82;2.22;;;22.60;99.90;;;;;;5136220;27;20069;-77
2022/07/25 11:57:26;;;;;;;10.45;2.63;;;22.60;99.90;;;;;;5136118;27;20046;-77
2022/07/25 11:59:53;;;;;;;7.05;2.60;;;22.70;99.90;;;;;;5136092;27;20043;-76
2022/07/25 12:02:30;;;;;;;10.90;2.63;;;22.70;99.90;;;;;;5135905;27;20090;-74
2022/07/25 12:05:05;;;;;;;9.15;3.05;;;22.50;99.90;;;;;;5135572;27;20073;-78
2022/07/25 12:07:40;;;;;;;10.90;2.67;;;23.00;99.90;;;;;;5136028;27;20062;-78
2022/07/25 12:10:09;;;;;;;9.23;2.40;;;23.60;99.90;;;;;;5135448;27;20416;-74
2022/07/25 12:12:53;;;;;;;9.20;3.00;;;23.60;99.90;;;;;;5135200;27;20175;-75
2022/07/25 12:15:22;;;;;;;7.85;2.85;;;23.80;99.90;;;;;;5125002;27;20431;-71
2022/07/25 12:17:50;;;;;;;10.00;3.00;;;23.20;99.90;;;;;;5133284;27;20052;-69
2022/07/25 12:20:21;;;;;;;5.93;2.30;;;20.70;99.90;;;;;;5134953;27;20047;-69
2022/07/25 12:22:48;;;;;;;10.20;2.50;;;22.70;99.90;;;;;;5135346;27;20066;-69
2022/07/25 12:25:14;;;;;;;17.50;3.20;;;22.50;99.90;;;;;;5134591;27;20097;-70
2022/07/25 12:27:40;;;;;;;7.45;2.55;;;22.50;99.90;;;;;;5135055;27;20075;-70
2022/07/25 12:30:07;;;;;;;10.35;2.47;;;22.10;99.90;;;;;;5134599;27;20121;-71
2022/07/25 12:32:34;;;;;;;7.35;2.60;;;22.30;99.90;;;;;;5134898;27;20046;-71
2022/07/25 12:34:59;;;;;;;10.05;2.40;;;22.30;99.90;;;;;;5135340;27;20463;-73
2022/07/25 12:37:26;;;;;;;4.63;2.10;;;22.70;99.90;;;;;;5134990;27;20196;-73
2022/07/25 12:39:52;;;;;;;11.82;3.15;;;22.70;99.90;;;;;;5135186;27;20100;-72
2022/07/25 12:42:18;;;;;;;6.72;2.47;;;22.60;99.90;;;;;;5134756;27;20059;-76
2022/07/25 12:44:44;;;;;;;8.82;2.50;;;22.40;99.90;;;;;;5099347;27;20047;-73
2022/07/25 12:47:10;;;;;;;9.60;2.75;;;22.60;99.90;;;;;;5134794;27;20421;-79
2022/07/25 12:49:36;;;;;;;9.95;2.83;;;22.40;99.90;;;;;;5116734;27;20486;-72
2022/07/25 12:52:03;;;;;;;10.65;2.85;;;22.50;99.90;;;;;;5134669;27;20083;-68
2022/07/25 12:54:28;;;;;;;8.65;2.53;;;22.50;99.90;;;;;;5134831;27;20042;-75